sensor_id;sensor_type;location;lat;lon;timestamp;P1;durP1;ratioP1;P2;durP2;ratioP2
19842;SDS011;10082;51.038;6.992;2022-09-09T00:00:19;4.05;;;2.22;;
19842;SDS011;10082;51.038;6.992;2022-09-09T00:02:48;2.97;;;1.90;;
19842;SDS011;10082;51.038;6.992;2022-09-09T00:05:23;4.55;;;2.17;;
19842;SDS011;10082;51.038;6.992;2022-09-09T00:07:55;3.67;;;2.00;;
19842;SDS011;10082;51.038;6.992;2022-09-09T00:10:28;3.75;;;1.88;;
19842;SDS011;10082;51.038;6.992;2022-09-09T00:13:01;4.07;;;1.98;;
19842;SDS011;10082;51.038;6.992;2022-09-09T00:15:34;5.10;;;2.13;;
19842;SDS011;10082;51.038;6.992;2022-09-09T00:18:11;2.97;;;1.80;;
19842;SDS011;10082;51.038;6.992;2022-09-09T00:20:44;2.80;;;1.73;;
19842;SDS011;10082;51.038;6.992;2022-09-09T00:23:20;3.97;;;1.73;;
19842;SDS011;10082;51.038;6.992;2022-09-09T00:25:53;3.58;;;1.90;;
19842;SDS011;10082;51.038;6.992;2022-09-09T00:28:25;3.72;;;1.77;;
19842;SDS011;10082;51.038;6.992;2022-09-09T00:30:58;1.92;;;1.70;;
19842;SDS011;10082;51.038;6.992;2022-09-09T00:33:35;2.97;;;1.90;;
19842;SDS011;10082;51.038;6.992;2022-09-09T00:36:04;3.35;;;1.88;;
19842;SDS011;10082;51.038;6.992;2022-09-09T00:38:40;2.28;;;1.85;;
19842;SDS011;10082;51.038;6.992;2022-09-09T00:41:10;4.10;;;2.13;;
19842;SDS011;10082;51.038;6.992;2022-09-09T00:43:42;3.38;;;1.70;;
19842;SDS011;10082;51.038;6.992;2022-09-09T00:46:21;3.10;;;1.92;;
19842;SDS011;10082;51.038;6.992;2022-09-09T00:49:03;2.97;;;1.65;;
19842;SDS011;10082;51.038;6.992;2022-09-09T00:51:39;7.32;;;2.05;;
19842;SDS011;10082;51.038;6.992;2022-09-09T00:54:15;2.10;;;1.77;;
19842;SDS011;10082;51.038;6.992;2022-09-09T00:56:57;5.20;;;2.03;;
19842;SDS011;10082;51.038;6.992;2022-09-09T00:59:32;4.25;;;1.60;;
19842;SDS011;10082;51.038;6.992;2022-09-09T01:02:10;3.33;;;1.63;;
19842;SDS011;10082;51.038;6.992;2022-09-09T01:04:45;2.58;;;1.50;;
19842;SDS011;10082;51.038;6.992;2022-09-09T01:07:13;2.35;;;1.60;;
19842;SDS011;10082;51.038;6.992;2022-09-09T01:09:45;3.58;;;1.60;;
19842;SDS011;10082;51.038;6.992;2022-09-09T01:12:23;4.45;;;1.90;;
19842;SDS011;10082;51.038;6.992;2022-09-09T01:14:56;1.92;;;1.55;;
19842;SDS011;10082;51.038;6.992;2022-09-09T01:17:31;2.58;;;1.35;;
19842;SDS011;10082;51.038;6.992;2022-09-09T01:20:15;5.00;;;1.88;;
19842;SDS011;10082;51.038;6.992;2022-09-09T01:22:55;3.83;;;1.77;;
19842;SDS011;10082;51.038;6.992;2022-09-09T01:26:04;1.70;;;1.50;;
19842;SDS011;10082;51.038;6.992;2022-09-09T01:28:40;1.90;;;1.67;;
19842;SDS011;10082;51.038;6.992;2022-09-09T01:31:12;2.72;;;1.70;;
19842;SDS011;10082;51.038;6.992;2022-09-09T01:33:45;3.10;;;1.30;;
19842;SDS011;10082;51.038;6.992;2022-09-09T01:36:13;3.83;;;1.38;;
19842;SDS011;10082;51.038;6.992;2022-09-09T01:38:49;3.83;;;1.23;;
19842;SDS011;10082;51.038;6.992;2022-09-09T01:41:18;2.08;;;1.20;;
19842;SDS011;10082;51.038;6.992;2022-09-09T01:43:56;1.98;;;1.00;;
19842;SDS011;10082;51.038;6.992;2022-09-09T01:46:24;1.65;;;1.10;;
19842;SDS011;10082;51.038;6.992;2022-09-09T01:48:51;2.22;;;1.45;;
19842;SDS011;10082;51.038;6.992;2022-09-09T01:51:19;2.65;;;1.20;;
19842;SDS011;10082;51.038;6.992;2022-09-09T01:53:47;2.53;;;1.02;;
19842;SDS011;10082;51.038;6.992;2022-09-09T01:56:18;2.35;;;1.10;;
19842;SDS011;10082;51.038;6.992;2022-09-09T01:59:01;2.67;;;1.40;;
19842;SDS011;10082;51.038;6.992;2022-09-09T02:01:37;2.50;;;1.10;;
19842;SDS011;10082;51.038;6.992;2022-09-09T02:04:18;1.67;;;1.00;;
19842;SDS011;10082;51.038;6.992;2022-09-09T02:06:57;2.25;;;1.20;;
19842;SDS011;10082;51.038;6.992;2022-09-09T02:09:28;3.00;;;1.55;;
19842;SDS011;10082;51.038;6.992;2022-09-09T02:11:59;3.28;;;1.20;;
19842;SDS011;10082;51.038;6.992;2022-09-09T02:14:48;3.05;;;1.50;;
19842;SDS011;10082;51.038;6.992;2022-09-09T02:17:21;2.47;;;1.30;;
19842;SDS011;10082;51.038;6.992;2022-09-09T02:20:03;2.58;;;1.35;;
19842;SDS011;10082;51.038;6.992;2022-09-09T02:22:47;2.88;;;1.55;;
19842;SDS011;10082;51.038;6.992;2022-09-09T02:25:19;2.22;;;1.55;;
19842;SDS011;10082;51.038;6.992;2022-09-09T02:27:53;1.92;;;1.23;;
19842;SDS011;10082;51.038;6.992;2022-09-09T02:30:21;3.92;;;1.70;;
19842;SDS011;10082;51.038;6.992;2022-09-09T02:32:52;2.13;;;1.35;;
19842;SDS011;10082;51.038;6.992;2022-09-09T02:35:29;2.70;;;1.38;;
19842;SDS011;10082;51.038;6.992;2022-09-09T02:38:00;3.08;;;1.70;;
19842;SDS011;10082;51.038;6.992;2022-09-09T02:40:30;1.52;;;1.30;;
19842;SDS011;10082;51.038;6.992;2022-09-09T02:43:01;3.17;;;1.50;;
19842;SDS011;10082;51.038;6.992;2022-09-09T02:45:31;2.47;;;1.60;;
19842;SDS011;10082;51.038;6.992;2022-09-09T02:48:09;2.65;;;1.50;;
19842;SDS011;10082;51.038;6.992;2022-09-09T02:50:44;3.50;;;1.52;;
19842;SDS011;10082;51.038;6.992;2022-09-09T02:53:20;4.43;;;1.40;;
19842;SDS011;10082;51.038;6.992;2022-09-09T02:55:51;3.90;;;1.77;;
19842;SDS011;10082;51.038;6.992;2022-09-09T02:58:24;1.65;;;1.30;;
19842;SDS011;10082;51.038;6.992;2022-09-09T03:00:57;2.80;;;1.10;;
19842;SDS011;10082;51.038;6.992;2022-09-09T03:03:26;2.10;;;1.58;;
19842;SDS011;10082;51.038;6.992;2022-09-09T03:05:54;3.70;;;1.52;;
19842;SDS011;10082;51.038;6.992;2022-09-09T03:08:22;2.17;;;1.48;;
19842;SDS011;10082;51.038;6.992;2022-09-09T03:10:49;2.90;;;1.70;;
19842;SDS011;10082;51.038;6.992;2022-09-09T03:13:15;3.03;;;1.42;;
19842;SDS011;10082;51.038;6.992;2022-09-09T03:15:45;3.45;;;1.45;;
19842;SDS011;10082;51.038;6.992;2022-09-09T03:18:16;2.90;;;1.60;;
19842;SDS011;10082;51.038;6.992;2022-09-09T03:20:47;2.53;;;1.45;;
19842;SDS011;10082;51.038;6.992;2022-09-09T03:23:14;4.25;;;1.70;;
19842;SDS011;10082;51.038;6.992;2022-09-09T03:25:46;2.75;;;1.52;;
19842;SDS011;10082;51.038;6.992;2022-09-09T03:28:13;4.00;;;1.67;;
19842;SDS011;10082;51.038;6.992;2022-09-09T03:30:41;4.40;;;1.50;;
19842;SDS011;10082;51.038;6.992;2022-09-09T03:33:09;4.10;;;1.70;;
19842;SDS011;10082;51.038;6.992;2022-09-09T03:35:37;3.70;;;2.10;;
19842;SDS011;10082;51.038;6.992;2022-09-09T03:38:04;4.35;;;1.90;;
19842;SDS011;10082;51.038;6.992;2022-09-09T03:40:33;3.63;;;1.70;;
19842;SDS011;10082;51.038;6.992;2022-09-09T03:43:00;3.25;;;1.60;;
19842;SDS011;10082;51.038;6.992;2022-09-09T03:45:27;3.63;;;1.80;;
19842;SDS011;10082;51.038;6.992;2022-09-09T03:47:54;2.58;;;1.80;;
19842;SDS011;10082;51.038;6.992;2022-09-09T03:50:24;4.03;;;1.50;;
19842;SDS011;10082;51.038;6.992;2022-09-09T03:52:51;2.80;;;1.40;;
19842;SDS011;10082;51.038;6.992;2022-09-09T03:55:20;5.85;;;2.00;;
19842;SDS011;10082;51.038;6.992;2022-09-09T03:57:47;2.35;;;1.40;;
19842;SDS011;10082;51.038;6.992;2022-09-09T04:00:15;3.42;;;1.58;;
19842;SDS011;10082;51.038;6.992;2022-09-09T04:02:42;3.75;;;2.00;;
19842;SDS011;10082;51.038;6.992;2022-09-09T04:05:13;3.13;;;1.58;;
19842;SDS011;10082;51.038;6.992;2022-09-09T04:07:43;3.40;;;1.60;;
19842;SDS011;10082;51.038;6.992;2022-09-09T04:10:10;3.30;;;1.40;;
19842;SDS011;10082;51.038;6.992;2022-09-09T04:12:39;4.85;;;1.83;;
19842;SDS011;10082;51.038;6.992;2022-09-09T04:15:06;3.28;;;1.55;;
19842;SDS011;10082;51.038;6.992;2022-09-09T04:17:34;2.60;;;1.60;;
19842;SDS011;10082;51.038;6.992;2022-09-09T04:20:02;2.83;;;1.50;;
19842;SDS011;10082;51.038;6.992;2022-09-09T04:22:29;2.45;;;1.70;;
19842;SDS011;10082;51.038;6.992;2022-09-09T04:24:57;4.75;;;1.88;;
19842;SDS011;10082;51.038;6.992;2022-09-09T04:27:24;3.38;;;1.88;;
19842;SDS011;10082;51.038;6.992;2022-09-09T04:29:50;3.80;;;1.80;;
19842;SDS011;10082;51.038;6.992;2022-09-09T04:32:17;1.73;;;1.35;;
19842;SDS011;10082;51.038;6.992;2022-09-09T04:34:45;5.03;;;1.77;;
19842;SDS011;10082;51.038;6.992;2022-09-09T04:37:13;3.70;;;1.90;;
19842;SDS011;10082;51.038;6.992;2022-09-09T04:39:41;2.90;;;1.77;;
19842;SDS011;10082;51.038;6.992;2022-09-09T04:42:09;3.65;;;1.98;;
19842;SDS011;10082;51.038;6.992;2022-09-09T04:44:37;3.95;;;1.77;;
19842;SDS011;10082;51.038;6.992;2022-09-09T04:47:06;4.47;;;1.67;;
19842;SDS011;10082;51.038;6.992;2022-09-09T04:49:33;3.97;;;1.52;;
19842;SDS011;10082;51.038;6.992;2022-09-09T04:52:00;4.95;;;1.77;;
19842;SDS011;10082;51.038;6.992;2022-09-09T04:54:26;4.43;;;1.73;;
19842;SDS011;10082;51.038;6.992;2022-09-09T04:56:53;3.33;;;1.70;;
19842;SDS011;10082;51.038;6.992;2022-09-09T04:59:22;4.18;;;1.80;;
19842;SDS011;10082;51.038;6.992;2022-09-09T05:01:52;2.65;;;1.48;;
19842;SDS011;10082;51.038;6.992;2022-09-09T05:04:20;4.00;;;1.75;;
19842;SDS011;10082;51.038;6.992;2022-09-09T05:06:47;4.40;;;1.90;;
19842;SDS011;10082;51.038;6.992;2022-09-09T05:09:14;3.20;;;1.75;;
19842;SDS011;10082;51.038;6.992;2022-09-09T05:11:42;3.35;;;1.50;;
19842;SDS011;10082;51.038;6.992;2022-09-09T05:14:26;5.45;;;1.77;;
19842;SDS011;10082;51.038;6.992;2022-09-09T05:16:53;4.60;;;1.83;;
19842;SDS011;10082;51.038;6.992;2022-09-09T05:19:21;4.35;;;1.90;;
19842;SDS011;10082;51.038;6.992;2022-09-09T05:21:50;4.78;;;1.77;;
19842;SDS011;10082;51.038;6.992;2022-09-09T05:24:21;4.25;;;1.95;;
19842;SDS011;10082;51.038;6.992;2022-09-09T05:26:51;3.30;;;1.80;;
19842;SDS011;10082;51.038;6.992;2022-09-09T05:29:18;4.30;;;2.00;;
19842;SDS011;10082;51.038;6.992;2022-09-09T05:31:46;4.20;;;2.08;;
19842;SDS011;10082;51.038;6.992;2022-09-09T05:34:16;5.20;;;2.70;;
19842;SDS011;10082;51.038;6.992;2022-09-09T05:36:42;4.05;;;2.50;;
19842;SDS011;10082;51.038;6.992;2022-09-09T05:39:09;5.82;;;2.50;;
19842;SDS011;10082;51.038;6.992;2022-09-09T05:41:37;3.50;;;2.20;;
19842;SDS011;10082;51.038;6.992;2022-09-09T05:44:04;4.88;;;2.53;;
19842;SDS011;10082;51.038;6.992;2022-09-09T05:46:34;6.32;;;2.67;;
19842;SDS011;10082;51.038;6.992;2022-09-09T05:49:02;3.72;;;2.35;;
19842;SDS011;10082;51.038;6.992;2022-09-09T05:51:31;4.65;;;2.60;;
19842;SDS011;10082;51.038;6.992;2022-09-09T05:54:03;4.00;;;2.20;;
19842;SDS011;10082;51.038;6.992;2022-09-09T05:56:33;5.35;;;2.55;;
19842;SDS011;10082;51.038;6.992;2022-09-09T05:59:00;6.88;;;2.70;;
19842;SDS011;10082;51.038;6.992;2022-09-09T06:01:28;5.63;;;2.60;;
19842;SDS011;10082;51.038;6.992;2022-09-09T06:03:56;3.58;;;1.90;;
19842;SDS011;10082;51.038;6.992;2022-09-09T06:06:25;5.78;;;2.67;;
19842;SDS011;10082;51.038;6.992;2022-09-09T06:08:56;3.90;;;2.25;;
19842;SDS011;10082;51.038;6.992;2022-09-09T06:11:27;5.13;;;2.42;;
19842;SDS011;10082;51.038;6.992;2022-09-09T06:13:57;4.80;;;2.70;;
19842;SDS011;10082;51.038;6.992;2022-09-09T06:16:25;4.22;;;2.20;;
19842;SDS011;10082;51.038;6.992;2022-09-09T06:18:54;6.82;;;2.33;;
19842;SDS011;10082;51.038;6.992;2022-09-09T06:21:25;5.43;;;1.98;;
19842;SDS011;10082;51.038;6.992;2022-09-09T06:23:54;3.78;;;1.95;;
19842;SDS011;10082;51.038;6.992;2022-09-09T06:26:21;5.32;;;2.17;;
19842;SDS011;10082;51.038;6.992;2022-09-09T06:28:51;2.80;;;1.92;;
19842;SDS011;10082;51.038;6.992;2022-09-09T06:31:19;5.70;;;2.00;;
19842;SDS011;10082;51.038;6.992;2022-09-09T06:33:49;3.75;;;2.15;;
19842;SDS011;10082;51.038;6.992;2022-09-09T06:36:18;5.00;;;2.00;;
19842;SDS011;10082;51.038;6.992;2022-09-09T06:38:47;3.65;;;1.85;;
19842;SDS011;10082;51.038;6.992;2022-09-09T06:41:15;4.57;;;2.00;;
19842;SDS011;10082;51.038;6.992;2022-09-09T06:43:44;4.80;;;1.55;;
19842;SDS011;10082;51.038;6.992;2022-09-09T06:46:12;3.55;;;1.88;;
19842;SDS011;10082;51.038;6.992;2022-09-09T06:48:41;5.85;;;1.73;;
19842;SDS011;10082;51.038;6.992;2022-09-09T06:51:11;4.80;;;1.60;;
19842;SDS011;10082;51.038;6.992;2022-09-09T06:53:41;4.90;;;1.77;;
19842;SDS011;10082;51.038;6.992;2022-09-09T06:58:58;2.95;;;1.58;;
19842;SDS011;10082;51.038;6.992;2022-09-09T07:01:30;2.53;;;1.50;;
19842;SDS011;10082;51.038;6.992;2022-09-09T07:04:01;3.70;;;1.50;;
19842;SDS011;10082;51.038;6.992;2022-09-09T07:06:33;3.45;;;1.40;;
19842;SDS011;10082;51.038;6.992;2022-09-09T07:09:02;2.58;;;1.40;;
19842;SDS011;10082;51.038;6.992;2022-09-09T07:11:36;5.43;;;1.92;;
19842;SDS011;10082;51.038;6.992;2022-09-09T07:14:06;3.45;;;1.80;;
19842;SDS011;10082;51.038;6.992;2022-09-09T07:16:33;2.55;;;1.42;;
19842;SDS011;10082;51.038;6.992;2022-09-09T07:19:02;2.35;;;1.40;;
19842;SDS011;10082;51.038;6.992;2022-09-09T07:21:30;3.88;;;1.40;;
19842;SDS011;10082;51.038;6.992;2022-09-09T07:23:57;3.88;;;1.45;;
19842;SDS011;10082;51.038;6.992;2022-09-09T07:26:25;3.53;;;1.70;;
19842;SDS011;10082;51.038;6.992;2022-09-09T07:28:55;3.92;;;1.60;;
19842;SDS011;10082;51.038;6.992;2022-09-09T07:31:24;5.32;;;1.70;;
19842;SDS011;10082;51.038;6.992;2022-09-09T07:33:53;4.63;;;1.60;;
19842;SDS011;10082;51.038;6.992;2022-09-09T07:36:21;3.08;;;1.55;;
19842;SDS011;10082;51.038;6.992;2022-09-09T07:38:49;4.88;;;1.73;;
19842;SDS011;10082;51.038;6.992;2022-09-09T07:41:18;4.32;;;1.70;;
19842;SDS011;10082;51.038;6.992;2022-09-09T07:43:49;2.88;;;1.40;;
19842;SDS011;10082;51.038;6.992;2022-09-09T07:46:18;5.00;;;1.75;;
19842;SDS011;10082;51.038;6.992;2022-09-09T07:48:46;6.80;;;2.00;;
19842;SDS011;10082;51.038;6.992;2022-09-09T07:51:17;4.85;;;1.73;;
19842;SDS011;10082;51.038;6.992;2022-09-09T07:53:51;4.38;;;1.90;;
19842;SDS011;10082;51.038;6.992;2022-09-09T07:56:19;6.07;;;2.90;;
19842;SDS011;10082;51.038;6.992;2022-09-09T07:58:48;5.95;;;2.00;;
19842;SDS011;10082;51.038;6.992;2022-09-09T08:01:19;4.53;;;2.40;;
19842;SDS011;10082;51.038;6.992;2022-09-09T08:03:51;7.18;;;3.20;;
19842;SDS011;10082;51.038;6.992;2022-09-09T08:06:20;9.07;;;3.45;;
19842;SDS011;10082;51.038;6.992;2022-09-09T08:08:50;5.82;;;2.40;;
19842;SDS011;10082;51.038;6.992;2022-09-09T08:11:18;4.03;;;1.83;;
19842;SDS011;10082;51.038;6.992;2022-09-09T08:13:46;5.55;;;2.03;;
19842;SDS011;10082;51.038;6.992;2022-09-09T08:16:14;8.65;;;2.90;;
19842;SDS011;10082;51.038;6.992;2022-09-09T08:18:44;8.82;;;3.83;;
19842;SDS011;10082;51.038;6.992;2022-09-09T08:21:11;6.47;;;3.25;;
19842;SDS011;10082;51.038;6.992;2022-09-09T08:23:40;6.47;;;2.47;;
19842;SDS011;10082;51.038;6.992;2022-09-09T08:26:09;5.35;;;2.50;;
19842;SDS011;10082;51.038;6.992;2022-09-09T08:28:39;6.43;;;2.30;;
19842;SDS011;10082;51.038;6.992;2022-09-09T08:31:07;6.40;;;3.00;;
19842;SDS011;10082;51.038;6.992;2022-09-09T08:33:36;5.93;;;2.85;;
19842;SDS011;10082;51.038;6.992;2022-09-09T08:36:06;8.20;;;3.42;;
19842;SDS011;10082;51.038;6.992;2022-09-09T08:38:36;4.43;;;1.73;;
19842;SDS011;10082;51.038;6.992;2022-09-09T08:41:07;5.40;;;1.88;;
19842;SDS011;10082;51.038;6.992;2022-09-09T08:43:44;4.65;;;1.40;;
19842;SDS011;10082;51.038;6.992;2022-09-09T08:46:14;4.70;;;1.80;;
19842;SDS011;10082;51.038;6.992;2022-09-09T08:48:52;4.15;;;1.73;;
19842;SDS011;10082;51.038;6.992;2022-09-09T08:51:26;5.50;;;2.15;;
19842;SDS011;10082;51.038;6.992;2022-09-09T08:53:57;5.57;;;2.85;;
19842;SDS011;10082;51.038;6.992;2022-09-09T08:56:27;4.43;;;2.17;;
19842;SDS011;10082;51.038;6.992;2022-09-09T08:58:57;5.97;;;2.20;;
19842;SDS011;10082;51.038;6.992;2022-09-09T09:01:44;4.28;;;1.88;;
19842;SDS011;10082;51.038;6.992;2022-09-09T09:04:29;7.72;;;2.90;;
19842;SDS011;10082;51.038;6.992;2022-09-09T09:07:09;5.63;;;2.83;;
19842;SDS011;10082;51.038;6.992;2022-09-09T09:09:47;5.55;;;2.70;;
19842;SDS011;10082;51.038;6.992;2022-09-09T09:12:24;9.45;;;3.53;;
19842;SDS011;10082;51.038;6.992;2022-09-09T09:14:54;4.07;;;2.05;;
19842;SDS011;10082;51.038;6.992;2022-09-09T09:17:24;4.57;;;1.75;;
19842;SDS011;10082;51.038;6.992;2022-09-09T09:19:56;3.22;;;1.30;;
19842;SDS011;10082;51.038;6.992;2022-09-09T09:22:26;2.67;;;1.35;;
19842;SDS011;10082;51.038;6.992;2022-09-09T09:25:05;3.20;;;1.10;;
19842;SDS011;10082;51.038;6.992;2022-09-09T09:27:43;2.80;;;1.40;;
19842;SDS011;10082;51.038;6.992;2022-09-09T09:30:17;3.95;;;1.95;;
19842;SDS011;10082;51.038;6.992;2022-09-09T09:32:48;4.50;;;2.08;;
19842;SDS011;10082;51.038;6.992;2022-09-09T09:35:19;3.45;;;2.10;;
19842;SDS011;10082;51.038;6.992;2022-09-09T09:37:47;3.08;;;1.90;;
19842;SDS011;10082;51.038;6.992;2022-09-09T09:40:15;4.03;;;1.70;;
19842;SDS011;10082;51.038;6.992;2022-09-09T09:42:51;6.47;;;2.80;;
19842;SDS011;10082;51.038;6.992;2022-09-09T09:45:26;6.75;;;2.67;;
19842;SDS011;10082;51.038;6.992;2022-09-09T09:48:01;6.13;;;3.22;;
19842;SDS011;10082;51.038;6.992;2022-09-09T09:50:30;6.00;;;3.10;;
19842;SDS011;10082;51.038;6.992;2022-09-09T09:53:00;6.70;;;3.10;;
19842;SDS011;10082;51.038;6.992;2022-09-09T09:55:33;2.90;;;1.70;;
19842;SDS011;10082;51.038;6.992;2022-09-09T09:58:02;3.13;;;1.52;;
19842;SDS011;10082;51.038;6.992;2022-09-09T10:00:30;4.88;;;1.77;;
19842;SDS011;10082;51.038;6.992;2022-09-09T10:03:12;2.97;;;1.10;;
19842;SDS011;10082;51.038;6.992;2022-09-09T10:05:45;2.28;;;1.38;;
19842;SDS011;10082;51.038;6.992;2022-09-09T10:08:14;6.20;;;2.20;;
19842;SDS011;10082;51.038;6.992;2022-09-09T10:10:46;9.05;;;4.18;;
19842;SDS011;10082;51.038;6.992;2022-09-09T10:13:20;3.83;;;1.88;;
19842;SDS011;10082;51.038;6.992;2022-09-09T10:15:59;8.48;;;3.47;;
19842;SDS011;10082;51.038;6.992;2022-09-09T10:18:45;9.00;;;3.85;;
19842;SDS011;10082;51.038;6.992;2022-09-09T10:21:37;7.80;;;3.80;;
19842;SDS011;10082;51.038;6.992;2022-09-09T10:24:32;10.20;;;5.15;;
19842;SDS011;10082;51.038;6.992;2022-09-09T10:27:20;4.78;;;2.60;;
19842;SDS011;10082;51.038;6.992;2022-09-09T10:29:59;2.90;;;1.50;;
19842;SDS011;10082;51.038;6.992;2022-09-09T10:32:38;2.88;;;1.42;;
19842;SDS011;10082;51.038;6.992;2022-09-09T10:35:25;5.38;;;1.80;;
19842;SDS011;10082;51.038;6.992;2022-09-09T10:38:00;6.25;;;3.72;;
19842;SDS011;10082;51.038;6.992;2022-09-09T10:40:41;6.65;;;3.60;;
19842;SDS011;10082;51.038;6.992;2022-09-09T10:43:18;8.50;;;4.80;;
19842;SDS011;10082;51.038;6.992;2022-09-09T10:46:00;8.15;;;4.00;;
19842;SDS011;10082;51.038;6.992;2022-09-09T10:48:42;6.07;;;2.88;;
19842;SDS011;10082;51.038;6.992;2022-09-09T10:51:27;10.30;;;5.43;;
19842;SDS011;10082;51.038;6.992;2022-09-09T10:54:19;4.40;;;1.88;;
19842;SDS011;10082;51.038;6.992;2022-09-09T10:56:56;4.38;;;2.75;;
19842;SDS011;10082;51.038;6.992;2022-09-09T10:59:27;5.88;;;3.33;;
19842;SDS011;10082;51.038;6.992;2022-09-09T11:02:00;6.28;;;3.80;;
19842;SDS011;10082;51.038;6.992;2022-09-09T11:04:33;6.63;;;3.90;;
19842;SDS011;10082;51.038;6.992;2022-09-09T11:07:07;8.63;;;4.30;;
19842;SDS011;10082;51.038;6.992;2022-09-09T11:09:39;10.55;;;4.80;;
19842;SDS011;10082;51.038;6.992;2022-09-09T11:12:13;2.30;;;1.60;;
19842;SDS011;10082;51.038;6.992;2022-09-09T11:14:45;4.10;;;2.25;;
19842;SDS011;10082;51.038;6.992;2022-09-09T11:17:17;6.53;;;2.72;;
19842;SDS011;10082;51.038;6.992;2022-09-09T11:19:46;3.92;;;2.13;;
19842;SDS011;10082;51.038;6.992;2022-09-09T11:22:16;3.30;;;1.75;;
19842;SDS011;10082;51.038;6.992;2022-09-09T11:24:52;6.43;;;2.60;;
19842;SDS011;10082;51.038;6.992;2022-09-09T11:27:27;4.30;;;2.20;;
19842;SDS011;10082;51.038;6.992;2022-09-09T11:30:03;4.15;;;1.80;;
19842;SDS011;10082;51.038;6.992;2022-09-09T11:35:54;3.25;;;1.45;;
19842;SDS011;10082;51.038;6.992;2022-09-09T11:38:32;8.68;;;4.05;;
19842;SDS011;10082;51.038;6.992;2022-09-09T11:41:08;12.68;;;6.28;;
19842;SDS011;10082;51.038;6.992;2022-09-09T11:43:39;8.73;;;3.90;;
19842;SDS011;10082;51.038;6.992;2022-09-09T11:46:08;8.80;;;4.53;;
19842;SDS011;10082;51.038;6.992;2022-09-09T11:48:37;6.07;;;2.50;;
19842;SDS011;10082;51.038;6.992;2022-09-09T11:51:08;4.53;;;1.92;;
19842;SDS011;10082;51.038;6.992;2022-09-09T11:53:47;3.15;;;1.48;;
19842;SDS011;10082;51.038;6.992;2022-09-09T11:56:23;3.97;;;1.98;;
19842;SDS011;10082;51.038;6.992;2022-09-09T11:58:57;3.58;;;1.58;;
19842;SDS011;10082;51.038;6.992;2022-09-09T12:01:35;11.52;;;4.38;;
19842;SDS011;10082;51.038;6.992;2022-09-09T12:04:10;13.13;;;6.97;;
19842;SDS011;10082;51.038;6.992;2022-09-09T12:06:42;14.73;;;6.35;;
19842;SDS011;10082;51.038;6.992;2022-09-09T12:09:17;5.93;;;3.35;;
19842;SDS011;10082;51.038;6.992;2022-09-09T12:11:49;2.85;;;1.30;;
19842;SDS011;10082;51.038;6.992;2022-09-09T12:14:22;2.85;;;1.13;;
19842;SDS011;10082;51.038;6.992;2022-09-09T12:17:08;7.22;;;2.83;;
19842;SDS011;10082;51.038;6.992;2022-09-09T12:19:36;11.93;;;4.60;;
19842;SDS011;10082;51.038;6.992;2022-09-09T12:22:04;5.88;;;2.30;;
19842;SDS011;10082;51.038;6.992;2022-09-09T12:24:40;4.10;;;1.75;;
19842;SDS011;10082;51.038;6.992;2022-09-09T12:27:13;3.40;;;1.63;;
19842;SDS011;10082;51.038;6.992;2022-09-09T12:29:50;11.77;;;5.47;;
19842;SDS011;10082;51.038;6.992;2022-09-09T12:32:24;12.45;;;4.65;;
19842;SDS011;10082;51.038;6.992;2022-09-09T12:34:54;7.30;;;3.05;;
19842;SDS011;10082;51.038;6.992;2022-09-09T12:37:26;5.15;;;2.42;;
19842;SDS011;10082;51.038;6.992;2022-09-09T12:39:58;4.63;;;1.80;;
19842;SDS011;10082;51.038;6.992;2022-09-09T12:42:27;4.63;;;1.38;;
19842;SDS011;10082;51.038;6.992;2022-09-09T12:44:56;3.70;;;1.23;;
19842;SDS011;10082;51.038;6.992;2022-09-09T12:47:29;3.90;;;1.58;;
19842;SDS011;10082;51.038;6.992;2022-09-09T12:50:01;8.07;;;3.53;;
19842;SDS011;10082;51.038;6.992;2022-09-09T12:52:29;4.55;;;2.15;;
19842;SDS011;10082;51.038;6.992;2022-09-09T12:54:59;3.53;;;1.35;;
19842;SDS011;10082;51.038;6.992;2022-09-09T12:57:30;2.40;;;1.60;;
19842;SDS011;10082;51.038;6.992;2022-09-09T13:00:11;3.03;;;1.10;;
19842;SDS011;10082;51.038;6.992;2022-09-09T13:02:48;3.05;;;1.45;;
19842;SDS011;10082;51.038;6.992;2022-09-09T13:05:17;3.60;;;1.35;;
19842;SDS011;10082;51.038;6.992;2022-09-09T13:07:46;3.70;;;1.42;;
19842;SDS011;10082;51.038;6.992;2022-09-09T13:10:14;4.15;;;1.60;;
19842;SDS011;10082;51.038;6.992;2022-09-09T13:12:45;4.30;;;1.60;;
19842;SDS011;10082;51.038;6.992;2022-09-09T13:15:16;2.58;;;1.35;;
19842;SDS011;10082;51.038;6.992;2022-09-09T13:17:51;3.47;;;1.38;;
19842;SDS011;10082;51.038;6.992;2022-09-09T13:20:20;3.10;;;1.27;;
19842;SDS011;10082;51.038;6.992;2022-09-09T13:22:49;3.58;;;1.45;;
19842;SDS011;10082;51.038;6.992;2022-09-09T13:25:19;2.97;;;1.20;;
19842;SDS011;10082;51.038;6.992;2022-09-09T13:27:54;2.63;;;1.20;;
19842;SDS011;10082;51.038;6.992;2022-09-09T13:30:25;1.88;;;1.50;;
19842;SDS011;10082;51.038;6.992;2022-09-09T13:33:00;1.58;;;1.05;;
19842;SDS011;10082;51.038;6.992;2022-09-09T13:35:45;2.78;;;1.15;;
19842;SDS011;10082;51.038;6.992;2022-09-09T13:38:14;2.83;;;1.25;;
19842;SDS011;10082;51.038;6.992;2022-09-09T13:40:51;4.35;;;1.20;;
19842;SDS011;10082;51.038;6.992;2022-09-09T13:43:20;3.67;;;1.50;;
19842;SDS011;10082;51.038;6.992;2022-09-09T13:45:53;4.43;;;1.67;;
19842;SDS011;10082;51.038;6.992;2022-09-09T13:48:23;4.68;;;1.70;;
19842;SDS011;10082;51.038;6.992;2022-09-09T13:50:57;2.00;;;1.20;;
19842;SDS011;10082;51.038;6.992;2022-09-09T13:53:26;4.03;;;1.38;;
19842;SDS011;10082;51.038;6.992;2022-09-09T13:55:53;2.80;;;1.45;;
19842;SDS011;10082;51.038;6.992;2022-09-09T13:58:22;3.15;;;1.80;;
19842;SDS011;10082;51.038;6.992;2022-09-09T14:00:50;3.58;;;1.50;;
19842;SDS011;10082;51.038;6.992;2022-09-09T14:03:18;3.92;;;1.40;;
19842;SDS011;10082;51.038;6.992;2022-09-09T14:05:45;3.63;;;1.30;;
19842;SDS011;10082;51.038;6.992;2022-09-09T14:11:02;4.65;;;1.90;;
19842;SDS011;10082;51.038;6.992;2022-09-09T14:13:29;2.80;;;1.20;;
19842;SDS011;10082;51.038;6.992;2022-09-09T14:15:55;4.35;;;1.70;;
19842;SDS011;10082;51.038;6.992;2022-09-09T14:18:23;4.25;;;1.65;;
19842;SDS011;10082;51.038;6.992;2022-09-09T14:20:50;3.88;;;1.60;;
19842;SDS011;10082;51.038;6.992;2022-09-09T14:23:17;5.90;;;3.03;;
19842;SDS011;10082;51.038;6.992;2022-09-09T14:25:44;3.88;;;2.00;;
19842;SDS011;10082;51.038;6.992;2022-09-09T14:28:12;3.25;;;1.83;;
19842;SDS011;10082;51.038;6.992;2022-09-09T14:30:41;7.88;;;3.03;;
19842;SDS011;10082;51.038;6.992;2022-09-09T14:33:10;4.78;;;2.47;;
19842;SDS011;10082;51.038;6.992;2022-09-09T14:35:39;4.55;;;2.20;;
19842;SDS011;10082;51.038;6.992;2022-09-09T14:38:07;4.13;;;1.90;;
19842;SDS011;10082;51.038;6.992;2022-09-09T14:40:34;2.13;;;1.90;;
19842;SDS011;10082;51.038;6.992;2022-09-09T14:43:02;4.85;;;2.03;;
19842;SDS011;10082;51.038;6.992;2022-09-09T14:45:29;4.53;;;2.35;;
19842;SDS011;10082;51.038;6.992;2022-09-09T14:47:56;2.55;;;2.03;;
19842;SDS011;10082;51.038;6.992;2022-09-09T14:50:23;4.32;;;2.05;;
19842;SDS011;10082;51.038;6.992;2022-09-09T14:52:51;2.72;;;2.10;;
19842;SDS011;10082;51.038;6.992;2022-09-09T14:55:18;4.47;;;2.58;;
19842;SDS011;10082;51.038;6.992;2022-09-09T14:57:44;4.68;;;2.45;;
19842;SDS011;10082;51.038;6.992;2022-09-09T15:00:11;2.55;;;1.90;;
19842;SDS011;10082;51.038;6.992;2022-09-09T15:02:39;2.67;;;1.77;;
19842;SDS011;10082;51.038;6.992;2022-09-09T15:05:06;2.25;;;1.40;;
19842;SDS011;10082;51.038;6.992;2022-09-09T15:07:33;2.05;;;1.67;;
19842;SDS011;10082;51.038;6.992;2022-09-09T15:10:02;4.03;;;1.95;;
19842;SDS011;10082;51.038;6.992;2022-09-09T15:12:29;2.20;;;1.90;;
19842;SDS011;10082;51.038;6.992;2022-09-09T15:14:56;4.63;;;2.60;;
19842;SDS011;10082;51.038;6.992;2022-09-09T15:17:23;5.65;;;3.30;;
19842;SDS011;10082;51.038;6.992;2022-09-09T15:19:52;4.78;;;3.22;;
19842;SDS011;10082;51.038;6.992;2022-09-09T15:22:20;7.80;;;4.20;;